createdAt,value
2023-05-25T00:01:10.618Z,100.00
2023-05-25T00:03:40.488Z,100.00
2023-05-25T00:06:07.389Z,100.00
2023-05-25T00:08:34.036Z,100.00
2023-05-25T00:11:00.866Z,100.00
2023-05-25T00:13:27.589Z,100.00
2023-05-25T00:15:54.358Z,100.00
2023-05-25T00:18:22.187Z,100.00
2023-05-25T00:20:48.889Z,100.00
2023-05-25T00:23:15.561Z,100.00
2023-05-25T00:25:42.756Z,100.00
2023-05-25T00:28:11.448Z,100.00
2023-05-25T00:30:38.209Z,100.00
2023-05-25T00:33:05.354Z,100.00
2023-05-25T00:35:32.102Z,100.00
2023-05-25T00:37:58.775Z,100.00
2023-05-25T00:40:25.456Z,100.00
2023-05-25T00:42:52.702Z,100.00
2023-05-25T01:57:58.043Z,100.00
2023-05-25T02:00:31.427Z,100.00
2023-05-25T02:02:58.540Z,100.00
2023-05-25T02:05:25.604Z,100.00
2023-05-25T02:07:52.618Z,100.00
2023-05-25T02:10:19.578Z,100.00
2023-05-25T02:12:46.890Z,100.00
2023-05-25T02:15:15.020Z,100.00
2023-05-25T02:17:41.778Z,100.00
2023-05-25T02:20:10.129Z,100.00
2023-05-25T02:22:37.928Z,100.00
2023-05-25T02:25:05.815Z,100.00
2023-05-25T02:27:32.656Z,100.00
2023-05-25T02:29:59.340Z,100.00
2023-05-25T02:32:26.083Z,100.00
2023-05-25T02:34:52.780Z,100.00
2023-05-25T02:37:19.532Z,100.00
2023-05-25T02:39:48.439Z,100.00
2023-05-25T02:42:15.095Z,100.00
2023-05-25T02:44:42.855Z,100.00
2023-05-25T02:47:09.576Z,100.00
2023-05-25T02:49:36.334Z,100.00
2023-05-25T02:52:03.274Z,100.00
2023-05-25T02:54:30.034Z,100.00
2023-05-25T02:56:59.026Z,100.00
2023-05-25T02:59:25.840Z,100.00
2023-05-25T03:01:52.692Z,100.00
2023-05-25T03:04:19.466Z,100.00
2023-05-25T03:06:46.290Z,100.00
2023-05-25T03:09:13.250Z,100.00
2023-05-25T03:11:39.907Z,100.00
2023-05-25T03:14:06.645Z,100.00
2023-05-25T03:16:36.472Z,100.00
2023-05-25T03:19:05.456Z,100.00
2023-05-25T03:21:33.148Z,100.00
2023-05-25T03:24:00.003Z,100.00
2023-05-25T03:26:26.816Z,100.00
2023-05-25T03:28:53.457Z,100.00
2023-05-25T03:31:20.139Z,100.00
2023-05-25T03:33:46.774Z,100.00
2023-05-25T03:36:13.751Z,100.00
2023-05-25T03:38:42.460Z,100.00
2023-05-25T03:41:09.131Z,100.00
2023-05-25T03:43:35.781Z,100.00
2023-05-25T03:46:02.462Z,100.00
2023-05-25T03:48:29.209Z,100.00
2023-05-25T03:50:55.912Z,100.00
2023-05-25T03:53:22.649Z,100.00
2023-05-25T03:55:52.224Z,100.00
2023-05-25T03:58:19.214Z,100.00
2023-05-25T04:00:46.085Z,100.00
2023-05-25T04:03:12.908Z,100.00
2023-05-25T04:05:39.673Z,100.00
2023-05-25T04:08:08.542Z,100.00
2023-05-25T04:10:35.366Z,100.00
2023-05-25T04:13:02.103Z,100.00
2023-05-25T04:15:28.822Z,100.00
2023-05-25T04:17:55.490Z,100.00
2023-05-25T04:20:36.415Z,100.00
2023-05-25T04:23:03.607Z,100.00
2023-05-25T04:25:32.176Z,100.00
2023-05-25T04:27:59.080Z,100.00
2023-05-25T04:30:25.745Z,100.00
2023-05-25T04:32:52.408Z,100.00
2023-05-25T04:35:20.954Z,100.00
2023-05-25T04:37:48.438Z,100.00
2023-05-25T04:40:15.199Z,100.00
2023-05-25T04:42:41.954Z,100.00
2023-05-25T04:45:10.472Z,100.00
2023-05-25T04:47:37.751Z,100.00
2023-05-25T04:50:04.637Z,100.00
2023-05-25T04:52:32.538Z,100.00
2023-05-25T04:54:59.335Z,100.00
2023-05-25T04:57:28.047Z,100.00
2023-05-25T04:59:54.949Z,100.00
2023-05-25T05:02:21.674Z,100.00
2023-05-25T05:04:48.400Z,100.00
2023-05-25T05:07:15.072Z,100.00
2023-05-25T05:09:41.760Z,100.00
2023-05-25T05:12:11.335Z,100.00
2023-05-25T05:14:38.696Z,100.00
2023-05-25T05:17:05.593Z,100.00
2023-05-25T05:19:33.298Z,100.00
2023-05-25T05:22:00.176Z,100.00
2023-05-25T05:24:27.259Z,100.00
2023-05-25T05:26:58.501Z,100.00
2023-05-25T05:29:27.002Z,100.00
2023-05-25T05:31:55.221Z,100.00
2023-05-25T05:34:21.986Z,100.00
2023-05-25T05:36:57.243Z,100.00
2023-05-25T05:39:24.420Z,100.00
2023-05-25T05:41:51.312Z,100.00
2023-05-25T05:44:18.774Z,87.50
2023-05-25T05:46:46.218Z,78.61
2023-05-25T05:49:12.949Z,71.46
2023-05-25T05:51:39.612Z,69.01
2023-05-25T05:54:06.344Z,63.17
2023-05-25T05:56:33.000Z,61.46
2023-05-25T05:58:59.742Z,60.20
2023-05-25T06:01:26.366Z,55.53
2023-05-25T06:03:54.479Z,55.22
2023-05-25T06:06:21.697Z,56.94
2023-05-25T06:08:48.387Z,58.92
2023-05-25T06:11:15.156Z,60.33
2023-05-25T06:13:41.814Z,61.28
2023-05-25T06:16:08.532Z,61.55
2023-05-25T06:18:35.238Z,63.75
2023-05-25T06:21:02.326Z,61.82
2023-05-25T06:23:29.071Z,62.65
2023-05-25T06:25:55.902Z,61.51
2023-05-25T06:28:22.578Z,59.24
2023-05-25T06:30:49.259Z,60.98
2023-05-25T06:33:15.932Z,60.91
2023-05-25T06:35:42.852Z,60.85
2023-05-25T06:38:11.239Z,61.35
2023-05-25T06:40:38.048Z,60.32
2023-05-25T06:43:04.675Z,61.93
2023-05-25T06:45:31.441Z,61.24
2023-05-25T06:47:58.129Z,61.42
2023-05-25T06:50:24.782Z,58.93
2023-05-25T06:52:51.575Z,56.40
2023-05-25T06:55:18.285Z,58.52
2023-05-25T06:57:44.936Z,56.85
2023-05-25T07:00:12.327Z,57.27
2023-05-25T07:02:39.577Z,57.00
2023-05-25T07:05:06.499Z,55.50
2023-05-25T07:07:33.577Z,55.53
2023-05-25T07:10:02.200Z,55.47
2023-05-25T07:12:29.014Z,52.85
2023-05-25T07:14:55.730Z,52.39
2023-05-25T07:17:22.439Z,51.76
2023-05-25T07:19:50.105Z,50.98
2023-05-25T07:22:18.984Z,51.86
2023-05-25T07:24:46.914Z,51.80
2023-05-25T07:27:16.771Z,51.77
2023-05-25T07:29:43.478Z,50.25
2023-05-25T07:32:10.149Z,49.41
2023-05-25T07:34:36.852Z,50.87
2023-05-25T07:37:03.678Z,50.03
2023-05-25T07:39:30.301Z,49.27
2023-05-25T07:41:56.969Z,48.73
2023-05-25T07:44:23.622Z,49.87
2023-05-25T07:46:50.293Z,49.15
2023-05-25T07:49:17.066Z,51.99
2023-05-25T07:51:44.986Z,52.10
2023-05-25T07:54:11.868Z,51.63
2023-05-25T07:56:39.049Z,52.32
2023-05-25T07:59:06.227Z,53.87
2023-05-25T08:01:32.982Z,55.98
2023-05-25T08:03:59.974Z,54.25
2023-05-25T08:06:27.187Z,56.60
2023-05-25T08:08:53.992Z,56.58
2023-05-25T08:11:25.103Z,55.86
2023-05-25T08:13:51.865Z,57.39
2023-05-25T08:16:19.158Z,57.89
2023-05-25T08:18:47.060Z,57.34
2023-05-25T08:21:14.194Z,57.03
2023-05-25T08:23:42.637Z,57.35
2023-05-25T08:26:26.108Z,56.50
2023-05-25T08:28:57.248Z,58.90
2023-05-25T08:31:24.048Z,58.47
2023-05-25T08:33:50.823Z,58.61
2023-05-25T08:36:17.920Z,61.32
2023-05-25T08:38:44.681Z,57.99
2023-05-25T08:41:12.204Z,57.79
2023-05-25T08:43:38.900Z,57.44
2023-05-25T08:46:07.512Z,58.09
2023-05-25T08:48:41.100Z,60.23
2023-05-25T08:51:11.483Z,58.91
2023-05-25T08:53:40.674Z,55.36
2023-05-25T08:56:19.933Z,56.55
2023-05-25T08:58:53.934Z,54.44
2023-05-25T09:01:22.843Z,55.15
2023-05-25T09:03:50.648Z,54.71
2023-05-25T09:06:17.545Z,57.26
2023-05-25T09:08:44.866Z,57.77
2023-05-25T09:11:16.261Z,57.09
2023-05-25T09:13:43.735Z,58.86
2023-05-25T09:16:11.274Z,57.89
2023-05-25T09:18:38.018Z,55.22
2023-05-25T09:21:04.863Z,52.95
2023-05-25T09:23:32.283Z,49.04
2023-05-25T09:25:59.017Z,47.92
2023-05-25T09:28:27.614Z,48.06
2023-05-25T09:30:54.798Z,45.13
2023-05-25T09:33:21.742Z,43.07
2023-05-25T09:35:48.746Z,43.27
2023-05-25T09:38:16.570Z,43.10
2023-05-25T09:40:43.902Z,43.21
2023-05-25T09:43:17.282Z,42.78
2023-05-25T09:45:49.127Z,42.59
2023-05-25T09:48:16.251Z,43.32
2023-05-25T09:50:43.414Z,43.16
2023-05-25T09:53:11.189Z,42.55
2023-05-25T09:55:51.989Z,44.35
2023-05-25T09:58:22.843Z,44.29
2023-05-25T10:00:49.503Z,42.53
2023-05-25T10:03:16.211Z,42.86
2023-05-25T10:05:42.889Z,42.62
2023-05-25T10:08:10.859Z,43.41
2023-05-25T10:10:37.981Z,42.59
2023-05-25T10:13:05.786Z,42.24
2023-05-25T10:15:32.715Z,42.87
2023-05-25T10:18:00.723Z,42.32
2023-05-25T10:20:30.054Z,43.39
2023-05-25T10:23:05.309Z,42.10
2023-05-25T10:25:38.447Z,43.37
2023-05-25T10:28:16.642Z,42.83
2023-05-25T10:30:43.359Z,43.28
2023-05-25T10:33:10.665Z,42.86
2023-05-25T10:35:56.096Z,43.39
2023-05-25T10:38:31.234Z,44.64
2023-05-25T10:41:00.045Z,45.03
2023-05-25T10:43:27.010Z,45.51
2023-05-25T10:45:55.472Z,46.83
2023-05-25T10:48:23.081Z,47.72
2023-05-25T10:50:50.579Z,48.61
2023-05-25T10:53:17.474Z,48.12
2023-05-25T10:55:53.099Z,46.74
2023-05-25T10:58:21.706Z,46.09
2023-05-25T11:01:09.398Z,46.74
2023-05-25T11:03:48.524Z,47.49
2023-05-25T11:06:16.895Z,46.46
2023-05-25T11:08:59.329Z,47.25
2023-05-25T11:11:59.616Z,47.56
2023-05-25T11:14:38.605Z,48.55
2023-05-25T11:17:16.185Z,48.97
2023-05-25T11:19:54.421Z,50.13
2023-05-25T11:22:31.870Z,52.10
2023-05-25T11:25:00.190Z,51.50
2023-05-25T11:27:31.317Z,50.32
2023-05-25T11:29:59.120Z,51.81
2023-05-25T11:32:27.021Z,51.78
2023-05-25T11:34:55.311Z,52.70
2023-05-25T11:37:24.891Z,52.77
2023-05-25T11:39:52.720Z,54.21
2023-05-25T11:42:21.174Z,52.09
2023-05-25T11:44:47.969Z,51.30
2023-05-25T11:47:18.780Z,49.66
2023-05-25T11:49:47.199Z,47.64
2023-05-25T11:52:19.556Z,48.61
2023-05-25T11:54:46.649Z,48.91
2023-05-25T11:57:28.413Z,49.28
2023-05-25T12:00:07.201Z,52.58
2023-05-25T12:02:38.834Z,51.60
2023-05-25T12:05:08.715Z,51.13
2023-05-25T12:07:49.531Z,52.60
2023-05-25T12:10:16.677Z,54.23
2023-05-25T12:12:43.343Z,53.47
2023-05-25T12:15:11.701Z,52.29
2023-05-25T12:17:44.585Z,52.58
2023-05-25T12:20:12.844Z,52.41
2023-05-25T12:22:40.276Z,52.44
2023-05-25T12:25:11.268Z,51.56
2023-05-25T12:27:38.109Z,50.75
2023-05-25T12:30:09.750Z,51.28
2023-05-25T12:33:06.461Z,51.20
2023-05-25T12:35:50.297Z,51.57
2023-05-25T12:38:18.776Z,50.82
2023-05-25T12:41:06.728Z,50.19
2023-05-25T12:43:38.314Z,48.88
2023-05-25T12:46:06.948Z,48.17
2023-05-25T12:48:34.225Z,47.58
2023-05-25T12:51:04.403Z,47.14
2023-05-25T12:53:31.412Z,45.91
2023-05-25T12:56:04.722Z,46.37
2023-05-25T12:58:33.508Z,46.32
2023-05-25T13:01:03.396Z,46.10
2023-05-25T13:03:41.084Z,47.05
2023-05-25T13:06:09.302Z,47.58
2023-05-25T13:08:39.198Z,48.30
2023-05-25T13:11:09.263Z,49.27
2023-05-25T13:13:36.112Z,50.47
2023-05-25T13:16:02.849Z,51.01
2023-05-25T13:18:29.599Z,51.27
2023-05-25T13:20:57.135Z,53.08
2023-05-25T13:23:24.303Z,53.57
2023-05-25T13:25:51.069Z,53.06
2023-05-25T13:28:17.853Z,51.53
2023-05-25T13:30:44.773Z,53.61
2023-05-25T13:33:11.752Z,52.26
2023-05-25T13:35:46.464Z,52.44
2023-05-25T13:38:17.140Z,51.40
2023-05-25T13:40:44.418Z,51.57
2023-05-25T13:43:11.700Z,50.21
2023-05-25T13:45:38.483Z,50.87
2023-05-25T13:48:05.678Z,49.95
2023-05-25T13:50:35.590Z,51.72
2023-05-25T13:53:02.361Z,50.27
2023-05-25T13:55:29.241Z,52.34
2023-05-25T13:57:55.901Z,52.16
2023-05-25T14:00:22.882Z,52.59
2023-05-25T14:02:49.709Z,51.59
2023-05-25T14:05:16.953Z,50.49
2023-05-25T14:07:44.558Z,49.85
2023-05-25T14:10:11.448Z,49.73
2023-05-25T14:12:38.662Z,50.05
2023-05-25T14:15:07.535Z,49.52
2023-05-25T14:17:38.941Z,50.63
2023-05-25T14:20:12.996Z,49.27
2023-05-25T14:22:42.048Z,50.27
2023-05-25T14:25:09.113Z,50.99
2023-05-25T14:27:35.794Z,50.71
2023-05-25T14:30:02.433Z,50.31
2023-05-25T14:32:29.206Z,48.69
2023-05-25T14:34:55.853Z,48.82
2023-05-25T14:37:22.523Z,48.52
2023-05-25T14:39:49.310Z,48.90
2023-05-25T14:42:17.020Z,49.64
2023-05-25T14:44:47.687Z,49.48
2023-05-25T14:47:17.807Z,46.93
2023-05-25T14:49:44.932Z,47.01
2023-05-25T14:52:11.674Z,46.06
2023-05-25T14:54:44.318Z,46.44
2023-05-25T14:57:12.144Z,45.06
2023-05-25T14:59:39.801Z,44.11
2023-05-25T15:02:07.406Z,45.39
2023-05-25T15:04:34.652Z,45.97
2023-05-25T15:07:01.496Z,47.53
2023-05-25T15:09:28.253Z,48.45
2023-05-25T15:11:55.096Z,48.11
2023-05-25T15:14:21.993Z,49.77
2023-05-25T15:16:48.770Z,50.65
2023-05-25T15:19:17.574Z,49.39
2023-05-25T15:21:44.718Z,48.86
2023-05-25T15:24:13.830Z,47.81
2023-05-25T15:26:40.537Z,49.14
2023-05-25T15:29:07.513Z,48.34
2023-05-25T15:31:34.239Z,49.65
2023-05-25T15:34:00.986Z,49.13
2023-05-25T15:36:27.713Z,48.01
2023-05-25T15:38:54.350Z,48.01
2023-05-25T15:41:21.092Z,48.87
2023-05-25T15:44:01.507Z,48.04
2023-05-25T15:46:28.491Z,48.74
2023-05-25T15:48:56.494Z,45.99
2023-05-25T15:51:25.519Z,45.31
2023-05-25T15:53:52.476Z,45.14
2023-05-25T15:56:19.183Z,45.85
2023-05-25T15:58:51.664Z,44.28
2023-05-25T16:01:25.807Z,44.52
2023-05-25T16:03:52.887Z,44.82
2023-05-25T16:06:23.856Z,43.65
2023-05-25T16:08:50.561Z,45.03
2023-05-25T16:11:17.275Z,44.77
2023-05-25T16:13:43.957Z,45.29
2023-05-25T16:16:10.673Z,44.65
2023-05-25T16:18:37.625Z,46.63
2023-05-25T16:21:04.929Z,47.28
2023-05-25T16:23:31.701Z,48.62
2023-05-25T16:25:58.497Z,50.36
2023-05-25T16:28:25.246Z,50.17
2023-05-25T16:30:55.943Z,51.11
2023-05-25T16:33:22.894Z,53.16
2023-05-25T16:35:49.657Z,52.54
2023-05-25T16:38:19.373Z,52.64
2023-05-25T16:40:48.933Z,52.84
2023-05-25T16:43:16.238Z,54.62
2023-05-25T16:45:50.698Z,54.31
2023-05-25T16:48:17.541Z,54.35
2023-05-25T16:50:44.218Z,53.79
2023-05-25T16:53:11.034Z,53.91
2023-05-25T16:55:37.889Z,55.43
2023-05-25T16:58:05.124Z,54.35
2023-05-25T17:00:31.837Z,56.01
2023-05-25T17:02:58.746Z,56.75
2023-05-25T17:05:25.742Z,55.72
2023-05-25T17:07:52.702Z,56.07
2023-05-25T17:10:19.548Z,57.87
2023-05-25T17:12:46.380Z,56.65
2023-05-25T17:15:16.023Z,58.27
2023-05-25T17:17:43.455Z,59.07
2023-05-25T17:20:11.457Z,58.53
2023-05-25T17:22:38.327Z,58.94
2023-05-25T17:25:06.235Z,59.82
2023-05-25T17:27:32.969Z,60.58
2023-05-25T17:30:00.181Z,58.39
2023-05-25T17:32:27.171Z,58.76
2023-05-25T17:34:53.950Z,62.99
2023-05-25T17:37:21.366Z,59.19
2023-05-25T17:39:48.457Z,60.68
2023-05-25T17:42:16.720Z,60.55
2023-05-25T17:44:44.301Z,58.88
2023-05-25T17:47:11.450Z,57.39
2023-05-25T17:49:39.834Z,57.26
2023-05-25T17:52:08.220Z,58.69
2023-05-25T17:54:38.954Z,57.82
2023-05-25T17:57:06.693Z,62.12
2023-05-25T17:59:45.502Z,60.87
2023-05-25T18:02:12.888Z,60.08
2023-05-25T18:04:39.800Z,55.37
2023-05-25T18:07:06.565Z,55.40
2023-05-25T18:09:41.582Z,54.42
2023-05-25T18:12:10.615Z,54.47
2023-05-25T18:14:37.885Z,53.40
2023-05-25T18:17:05.021Z,53.80
2023-05-25T18:19:32.014Z,54.75
2023-05-25T18:21:59.122Z,51.20
2023-05-25T18:24:26.795Z,51.61
2023-05-25T18:26:53.780Z,52.32
2023-05-25T18:29:20.504Z,53.44
2023-05-25T18:31:48.886Z,55.11
2023-05-25T18:34:16.120Z,54.25
2023-05-25T18:36:42.841Z,51.03
2023-05-25T18:39:09.848Z,53.51
2023-05-25T18:41:36.538Z,55.20
2023-05-25T18:44:07.714Z,54.92
2023-05-25T18:46:34.495Z,55.63
2023-05-25T18:49:01.173Z,57.24
2023-05-25T18:51:27.877Z,56.92
2023-05-25T18:53:54.817Z,59.11
2023-05-25T18:56:21.514Z,58.25
2023-05-25T18:58:48.948Z,60.53
2023-05-25T19:01:17.539Z,60.40
2023-05-25T19:03:44.405Z,61.09
2023-05-25T19:06:11.546Z,61.26
2023-05-25T19:08:41.164Z,61.37
2023-05-25T19:11:07.824Z,62.23
2023-05-25T19:13:34.507Z,63.65
2023-05-25T19:16:03.304Z,63.55
2023-05-25T19:18:30.068Z,64.46
2023-05-25T19:20:58.285Z,64.71
2023-05-25T19:23:25.094Z,66.14
2023-05-25T19:25:51.765Z,65.93
2023-05-25T19:28:18.491Z,67.60
2023-05-25T19:30:45.795Z,68.53
2023-05-25T19:33:12.555Z,68.81
2023-05-25T19:35:41.447Z,69.28
2023-05-25T19:38:08.200Z,70.74
2023-05-25T19:40:35.035Z,71.34
2023-05-25T19:43:01.812Z,72.13
2023-05-25T19:45:28.572Z,73.33
2023-05-25T19:47:55.387Z,74.15
2023-05-25T19:50:22.107Z,74.51
2023-05-25T19:52:48.882Z,75.32
2023-05-25T19:55:15.572Z,75.73
2023-05-25T19:57:42.221Z,76.84
2023-05-25T20:00:17.576Z,76.53
2023-05-25T20:02:52.677Z,78.26
2023-05-25T20:05:22.802Z,78.07
2023-05-25T20:07:52.107Z,79.76
2023-05-25T20:10:21.521Z,80.51
2023-05-25T20:12:48.223Z,80.97
2023-05-25T20:15:15.060Z,82.04
2023-05-25T20:17:41.775Z,81.18
2023-05-25T20:20:08.631Z,80.88
2023-05-25T20:22:35.460Z,81.78
2023-05-25T20:25:02.167Z,82.16
2023-05-25T20:27:28.846Z,82.58
2023-05-25T20:29:55.679Z,83.32
2023-05-25T20:32:22.523Z,82.82
2023-05-25T20:34:49.207Z,85.20
2023-05-25T20:37:17.106Z,85.26
2023-05-25T20:39:43.876Z,85.98
2023-05-25T20:42:11.708Z,86.39
2023-05-25T20:44:38.373Z,87.23
2023-05-25T20:47:05.464Z,87.51
2023-05-25T20:49:32.140Z,88.61
2023-05-25T20:51:59.583Z,90.10
2023-05-25T20:54:26.648Z,90.46
2023-05-25T20:56:53.535Z,90.88
2023-05-25T20:59:20.497Z,89.76
2023-05-25T21:01:47.641Z,90.73
2023-05-25T21:04:14.675Z,92.81
2023-05-25T21:06:41.770Z,92.28
2023-05-25T21:09:08.717Z,92.49
2023-05-25T21:11:35.387Z,94.05
2023-05-25T21:14:02.193Z,95.40
2023-05-25T21:16:28.893Z,96.61
2023-05-25T21:18:55.634Z,96.24
2023-05-25T21:21:22.310Z,96.44
2023-05-25T21:23:49.042Z,97.10
2023-05-25T21:26:15.873Z,98.30
2023-05-25T21:28:42.558Z,98.63
2023-05-25T21:31:09.208Z,98.42
2023-05-25T21:33:37.550Z,98.13
2023-05-25T21:36:04.248Z,99.00
2023-05-25T21:38:30.939Z,100.00
2023-05-25T21:40:58.700Z,100.00
2023-05-25T21:43:27.028Z,100.00
2023-05-25T21:45:53.724Z,100.00
2023-05-25T21:48:21.150Z,100.00
2023-05-25T21:50:50.424Z,100.00
2023-05-25T21:53:17.200Z,100.00
2023-05-25T21:55:44.718Z,100.00
2023-05-25T21:58:12.637Z,100.00
2023-05-25T22:00:39.381Z,100.00
2023-05-25T22:03:06.277Z,100.00
2023-05-25T22:05:34.695Z,100.00
2023-05-25T22:08:02.349Z,100.00
2023-05-25T22:10:29.000Z,100.00
2023-05-25T22:12:56.256Z,100.00
2023-05-25T22:15:23.475Z,100.00
2023-05-25T22:17:50.510Z,100.00
2023-05-25T22:20:18.289Z,100.00
2023-05-25T22:22:45.651Z,100.00
2023-05-25T22:25:12.395Z,100.00
2023-05-25T22:27:39.177Z,100.00
2023-05-25T22:30:06.929Z,100.00
2023-05-25T22:32:33.727Z,100.00
2023-05-25T22:35:01.136Z,100.00
2023-05-25T22:37:27.802Z,100.00
2023-05-25T22:39:54.434Z,100.00
2023-05-25T22:42:21.683Z,100.00
2023-05-25T22:44:49.411Z,100.00
2023-05-25T22:47:16.081Z,100.00
2023-05-25T22:49:44.440Z,100.00
2023-05-25T22:52:11.294Z,100.00
2023-05-25T22:54:38.017Z,100.00
2023-05-25T22:57:05.681Z,100.00
2023-05-25T22:59:32.491Z,100.00
2023-05-25T23:01:59.217Z,100.00
2023-05-25T23:04:26.009Z,100.00
2023-05-25T23:06:52.707Z,100.00
2023-05-25T23:09:20.976Z,100.00
2023-05-25T23:11:47.730Z,100.00
2023-05-25T23:14:14.413Z,100.00
2023-05-25T23:16:41.659Z,100.00
2023-05-25T23:19:08.573Z,100.00
2023-05-25T23:21:35.303Z,100.00
2023-05-25T23:24:02.046Z,100.00
2023-05-25T23:26:29.951Z,100.00
2023-05-25T23:28:56.653Z,100.00
2023-05-25T23:31:23.436Z,100.00
2023-05-25T23:33:50.206Z,100.00
2023-05-25T23:36:16.986Z,100.00
2023-05-25T23:38:43.750Z,100.00
2023-05-25T23:41:10.559Z,100.00
2023-05-25T23:43:37.188Z,100.00
2023-05-25T23:46:03.932Z,100.00
2023-05-25T23:48:30.831Z,100.00
2023-05-25T23:50:57.474Z,100.00
2023-05-25T23:53:24.189Z,100.00
2023-05-25T23:55:50.837Z,100.00
2023-05-25T23:58:17.496Z,100.00
